Time;durP1;ratioP1;P1;durP2;ratioP2;P2;SDS_P1;SDS_P2;PMS_P1;PMS_P2;Temp;Humidity;BMP_temperature;BMP_pressure;BME280_temperature;BME280_humidity;BME280_pressure;Samples;Min_cycle;Max_cycle;Signal;HPM_P1;HPM_P2
2023/12/22 00:02:20;;;;;;;20.65;3.47;;;5.50;99.90;;;;;;5071450;28;20105;-46
2023/12/22 00:04:45;;;;;;;15.77;3.15;;;5.30;99.90;;;;;;5070343;28;20407;-47
2023/12/22 00:07:11;;;;;;;17.48;3.33;;;5.40;99.90;;;;;;5070303;28;20044;-47
2023/12/22 00:09:37;;;;;;;20.05;3.35;;;5.40;99.90;;;;;;5071539;28;20046;-46
2023/12/22 00:12:03;;;;;;;19.55;2.53;;;5.10;99.90;;;;;;5071809;28;20051;-47
2023/12/22 00:14:29;;;;;;;17.58;2.97;;;4.20;99.90;;;;;;5071674;28;20067;-45
2023/12/22 00:16:55;;;;;;;19.77;3.67;;;4.10;99.90;;;;;;5073144;28;20041;-47
2023/12/22 00:19:20;;;;;;;20.08;3.58;;;4.80;99.90;;;;;;5074109;28;20060;-45
2023/12/22 00:21:46;;;;;;;19.98;3.67;;;4.80;99.90;;;;;;5075515;28;20093;-48
2023/12/22 00:24:11;;;;;;;18.92;3.15;;;4.80;99.90;;;;;;5075285;28;20082;-45
2023/12/22 00:26:37;;;;;;;14.80;3.50;;;4.40;99.90;;;;;;5075380;28;20040;-45
2023/12/22 00:29:03;;;;;;;14.60;2.25;;;4.60;99.90;;;;;;5075303;28;20033;-48
2023/12/22 00:31:28;;;;;;;19.52;3.83;;;4.60;99.90;;;;;;5075330;28;20072;-45
2023/12/22 00:33:54;;;;;;;20.58;3.08;;;4.80;99.90;;;;;;5075337;28;20033;-45
2023/12/22 00:36:24;;;;;;;16.13;3.38;;;5.00;99.90;;;;;;5073752;28;20047;-44
2023/12/22 00:38:50;;;;;;;7.72;1.65;;;5.20;99.90;;;;;;5075347;28;20113;-46
2023/12/22 00:41:15;;;;;;;15.52;2.22;;;4.50;99.90;;;;;;5074913;28;20120;-46
2023/12/22 00:43:41;;;;;;;11.65;1.40;;;5.00;99.90;;;;;;5074759;28;20049;-50
2023/12/22 00:46:07;;;;;;;10.77;1.63;;;4.80;99.90;;;;;;5074848;28;20111;-46
2023/12/22 00:48:32;;;;;;;10.57;1.83;;;4.40;99.90;;;;;;5074651;28;20416;-47
2023/12/22 00:50:58;;;;;;;14.32;2.30;;;4.70;99.90;;;;;;5074687;28;20076;-46
2023/12/22 00:53:23;;;;;;;7.57;1.23;;;5.20;99.90;;;;;;5073304;28;20036;-46
2023/12/22 00:55:49;;;;;;;9.55;1.90;;;4.00;99.90;;;;;;5074937;28;20045;-45
2023/12/22 00:58:15;;;;;;;14.63;2.83;;;4.80;99.90;;;;;;5073258;28;20047;-47
2023/12/22 01:00:40;;;;;;;10.85;2.72;;;4.60;99.90;;;;;;5074513;28;20037;-47
2023/12/22 01:03:06;;;;;;;14.00;2.05;;;4.80;99.90;;;;;;5074375;28;20074;-44
2023/12/22 01:05:31;;;;;;;13.55;2.72;;;4.80;99.90;;;;;;5074167;28;20055;-49
2023/12/22 01:07:57;;;;;;;20.45;2.58;;;4.60;99.90;;;;;;5074383;28;20048;-48
2023/12/22 01:10:23;;;;;;;24.90;2.92;;;4.90;99.90;;;;;;5074468;28;20036;-49
2023/12/22 01:12:48;;;;;;;22.58;2.90;;;5.00;99.90;;;;;;5074066;28;20040;-48
2023/12/22 01:15:14;;;;;;;22.13;3.55;;;5.00;99.90;;;;;;5074430;28;20127;-48
2023/12/22 01:17:40;;;;;;;24.02;4.45;;;5.40;99.90;;;;;;5074297;28;20041;-47
2023/12/22 01:20:06;;;;;;;20.33;3.75;;;5.30;99.90;;;;;;5074365;28;20090;-48
2023/12/22 01:22:33;;;;;;;23.67;3.80;;;5.20;99.90;;;;;;5073810;28;20087;-46
2023/12/22 01:24:59;;;;;;;17.70;4.30;;;5.20;99.90;;;;;;5073387;28;20052;-45
2023/12/22 01:27:25;;;;;;;13.63;2.80;;;5.00;99.90;;;;;;5072460;28;20045;-45
2023/12/22 01:29:51;;;;;;;18.70;3.58;;;5.10;99.90;;;;;;5072894;28;20049;-46
2023/12/22 01:32:16;;;;;;;21.58;4.15;;;5.50;99.90;;;;;;5073025;28;20120;-45
2023/12/22 01:34:42;;;;;;;28.50;4.47;;;5.30;99.90;;;;;;5073112;28;20040;-46
2023/12/22 01:37:09;;;;;;;18.77;4.38;;;5.50;99.90;;;;;;5071882;28;20074;-45
2023/12/22 01:39:35;;;;;;;22.13;5.47;;;5.30;99.90;;;;;;5072836;28;20043;-44
2023/12/22 01:42:00;;;;;;;16.85;3.95;;;4.90;99.90;;;;;;5072776;28;20032;-44
2023/12/22 01:44:26;;;;;;;12.80;3.35;;;4.80;99.90;;;;;;5072629;28;20486;-45
2023/12/22 01:46:52;;;;;;;18.40;2.97;;;3.80;99.90;;;;;;5072897;28;20523;-44
2023/12/22 01:49:19;;;;;;;21.85;3.35;;;3.80;99.90;;;;;;5073066;28;20044;-46
2023/12/22 01:51:45;;;;;;;27.88;4.63;;;4.20;99.90;;;;;;5071714;28;20384;-46
2023/12/22 01:54:14;;;;;;;21.48;4.28;;;3.90;99.90;;;;;;5072695;28;20036;-45
2023/12/22 01:56:39;;;;;;;25.42;3.58;;;4.00;99.90;;;;;;5072503;28;20082;-45
2023/12/22 01:59:06;;;;;;;33.03;4.30;;;4.30;99.90;;;;;;5072303;28;20074;-48
2023/12/22 02:01:32;;;;;;;21.85;3.83;;;5.00;99.90;;;;;;5072139;28;20512;-45
2023/12/22 02:03:59;;;;;;;27.27;4.07;;;4.90;99.90;;;;;;5070783;28;20124;-47
2023/12/22 02:06:24;;;;;;;25.75;4.75;;;4.90;99.90;;;;;;5072026;28;20044;-48
2023/12/22 02:08:50;;;;;;;26.65;4.38;;;5.10;99.90;;;;;;5068070;28;20041;-45
2023/12/22 02:11:16;;;;;;;28.00;4.60;;;5.10;99.90;;;;;;5054799;28;20041;-46
2023/12/22 02:13:45;;;;;;;25.95;3.95;;;4.90;99.90;;;;;;5052535;28;20041;-46
2023/12/22 02:16:32;;;;;;;15.95;3.00;;;4.50;99.90;;;;;;5059113;28;20052;-46
2023/12/22 02:19:04;;;;;;;21.23;3.60;;;3.40;99.90;;;;;;5065332;28;20076;-47
2023/12/22 02:21:29;;;;;;;15.93;3.08;;;3.20;99.90;;;;;;5060822;28;20037;-45
2023/12/22 02:23:55;;;;;;;15.93;2.97;;;3.20;99.90;;;;;;5062624;28;20036;-45
2023/12/22 02:26:41;;;;;;;17.48;2.22;;;3.20;99.90;;;;;;5072903;28;20032;-45
2023/12/22 02:29:09;;;;;;;19.42;2.65;;;4.20;99.90;;;;;;5072855;28;20480;-47
2023/12/22 02:31:44;;;;;;;24.60;2.22;;;3.40;99.90;;;;;;5072762;28;20106;-48
2023/12/22 02:34:18;;;;;;;19.73;2.97;;;3.50;99.90;;;;;;5072996;28;20048;-46
2023/12/22 02:36:45;;;;;;;14.05;2.70;;;4.40;99.90;;;;;;5072509;28;20052;-46
2023/12/22 02:39:11;;;;;;;15.45;2.78;;;3.90;99.90;;;;;;5073054;28;20040;-49
2023/12/22 02:41:38;;;;;;;21.27;5.35;;;4.10;99.90;;;;;;5071639;28;20056;-49
2023/12/22 02:44:04;;;;;;;18.75;3.72;;;4.90;99.90;;;;;;5072418;28;20425;-46
2023/12/22 02:46:30;;;;;;;19.55;3.40;;;4.50;99.90;;;;;;5072625;28;20091;-49
2023/12/22 02:48:55;;;;;;;21.33;3.15;;;4.70;99.90;;;;;;5072514;28;20079;-49
2023/12/22 02:51:21;;;;;;;24.95;3.53;;;4.80;99.90;;;;;;5072472;28;20040;-44
2023/12/22 02:53:47;;;;;;;21.50;3.33;;;5.20;99.90;;;;;;5072201;28;20036;-47
2023/12/22 02:56:12;;;;;;;20.80;3.53;;;4.60;99.90;;;;;;5070824;28;20045;-45
2023/12/22 02:58:38;;;;;;;17.00;3.58;;;4.50;99.90;;;;;;5072168;28;20115;-45
2023/12/22 03:01:03;;;;;;;17.25;2.10;;;4.60;99.90;;;;;;5072168;28;20045;-56
2023/12/22 03:03:29;;;;;;;8.45;1.67;;;3.20;99.90;;;;;;5072145;28;20098;-55
2023/12/22 03:05:55;;;;;;;16.92;2.15;;;3.00;99.90;;;;;;5072261;28;20040;-51
2023/12/22 03:08:20;;;;;;;10.77;1.70;;;2.60;99.90;;;;;;5072409;28;20485;-46
2023/12/22 03:10:46;;;;;;;10.75;1.60;;;2.70;99.90;;;;;;5072377;28;20029;-49
2023/12/22 03:13:12;;;;;;;9.88;1.77;;;2.60;99.90;;;;;;5072333;28;20443;-46
2023/12/22 03:15:37;;;;;;;12.95;1.58;;;2.60;99.90;;;;;;5071150;28;20400;-45
2023/12/22 03:18:03;;;;;;;16.75;3.25;;;2.70;99.90;;;;;;5072086;28;20464;-46
2023/12/22 03:20:29;;;;;;;13.75;2.20;;;2.70;99.90;;;;;;5072203;28;20487;-46
2023/12/22 03:22:54;;;;;;;20.67;2.85;;;2.80;99.90;;;;;;5072169;28;20044;-45
2023/12/22 03:25:20;;;;;;;19.90;3.13;;;3.00;99.90;;;;;;5072176;28;20076;-44
2023/12/22 03:27:46;;;;;;;24.65;2.88;;;3.20;99.90;;;;;;5072060;28;20071;-45
2023/12/22 03:30:12;;;;;;;23.48;3.28;;;3.40;99.90;;;;;;5071974;28;20115;-45
2023/12/22 03:32:38;;;;;;;22.35;4.13;;;3.70;99.90;;;;;;5070637;28;20040;-45
2023/12/22 03:35:04;;;;;;;11.48;1.90;;;3.90;99.90;;;;;;5072150;28;20127;-45
2023/12/22 03:37:29;;;;;;;8.90;1.75;;;3.80;99.90;;;;;;5070507;28;20049;-45
2023/12/22 03:39:55;;;;;;;12.27;1.48;;;4.10;99.90;;;;;;5072143;28;20071;-45
2023/12/22 03:42:21;;;;;;;10.60;2.42;;;4.10;99.90;;;;;;5071888;28;20063;-46
2023/12/22 03:44:46;;;;;;;12.13;2.22;;;3.90;99.90;;;;;;5071311;28;20066;-46
2023/12/22 03:47:13;;;;;;;9.65;1.60;;;4.00;99.90;;;;;;5071425;28;20044;-46
2023/12/22 03:49:38;;;;;;;12.00;1.60;;;3.90;99.90;;;;;;5070670;28;20040;-45
2023/12/22 03:52:04;;;;;;;11.43;1.67;;;4.00;99.90;;;;;;5078338;28;20036;-45
2023/12/22 03:54:30;;;;;;;10.82;1.77;;;4.40;99.90;;;;;;5078509;28;20078;-46
2023/12/22 03:56:55;;;;;;;16.40;2.17;;;4.00;99.90;;;;;;5078602;28;20044;-46
2023/12/22 03:59:21;;;;;;;17.25;2.90;;;4.10;99.90;;;;;;5078335;28;20119;-48
2023/12/22 04:01:52;;;;;;;22.98;4.28;;;4.20;99.90;;;;;;5078526;28;20076;-46
2023/12/22 04:04:18;;;;;;;21.55;3.50;;;4.60;99.90;;;;;;5078551;28;20083;-44
2023/12/22 04:06:44;;;;;;;20.55;3.15;;;5.00;99.90;;;;;;5078443;28;20072;-49
2023/12/22 04:09:09;;;;;;;24.67;3.70;;;5.00;99.90;;;;;;5078331;28;20036;-49
2023/12/22 04:11:36;;;;;;;34.90;5.07;;;4.40;99.90;;;;;;5077063;28;20047;-49
2023/12/22 04:14:02;;;;;;;26.38;3.67;;;4.50;99.90;;;;;;5078031;28;20040;-45
2023/12/22 04:16:28;;;;;;;33.63;4.40;;;5.30;99.90;;;;;;5078244;28;20093;-45
2023/12/22 04:18:54;;;;;;;22.88;4.05;;;4.90;99.90;;;;;;5078049;28;20392;-47
2023/12/22 04:21:19;;;;;;;20.38;4.03;;;5.40;99.90;;;;;;5078328;28;20036;-49
2023/12/22 04:23:45;;;;;;;29.67;4.35;;;4.70;99.90;;;;;;5077152;28;20047;-45
2023/12/22 04:26:10;;;;;;;24.75;3.72;;;4.80;99.90;;;;;;5077968;28;20041;-45
2023/12/22 04:28:36;;;;;;;23.80;3.20;;;5.40;99.90;;;;;;5078002;28;20041;-45
2023/12/22 04:31:02;;;;;;;18.15;3.72;;;4.60;99.90;;;;;;5078022;28;20037;-44
2023/12/22 04:33:28;;;;;;;18.80;2.00;;;5.00;99.90;;;;;;5077768;28;20540;-46
2023/12/22 04:35:54;;;;;;;19.55;2.92;;;4.80;99.90;;;;;;5077911;28;20051;-44
2023/12/22 04:38:19;;;;;;;19.65;2.90;;;4.90;99.90;;;;;;5078086;28;20036;-44
2023/12/22 04:40:45;;;;;;;22.20;3.83;;;5.90;99.90;;;;;;5076893;28;20396;-45
2023/12/22 04:43:10;;;;;;;19.52;4.18;;;5.00;99.90;;;;;;5076471;28;20411;-45
2023/12/22 04:45:36;;;;;;;18.08;3.45;;;5.20;99.90;;;;;;5078199;28;20072;-45
2023/12/22 04:48:03;;;;;;;13.10;2.47;;;6.30;99.90;;;;;;5078220;28;20044;-45
2023/12/22 04:50:29;;;;;;;17.48;2.50;;;6.50;99.90;;;;;;5078299;28;20052;-47
2023/12/22 04:52:55;;;;;;;17.30;2.42;;;6.20;99.90;;;;;;5076713;28;20382;-45
2023/12/22 04:55:22;;;;;;;21.70;3.55;;;5.90;99.90;;;;;;5076760;28;20050;-45
2023/12/22 04:57:47;;;;;;;21.25;3.55;;;5.90;99.90;;;;;;5078184;28;20099;-45
2023/12/22 05:00:13;;;;;;;12.55;2.92;;;5.70;99.90;;;;;;5078072;28;20071;-44
2023/12/22 05:02:39;;;;;;;16.23;2.30;;;6.10;99.90;;;;;;5074637;28;20480;-45
2023/12/22 05:05:05;;;;;;;19.27;2.75;;;5.60;99.90;;;;;;5074681;28;20098;-46
2023/12/22 05:07:31;;;;;;;15.50;3.10;;;6.30;99.90;;;;;;5074950;28;20040;-45
2023/12/22 05:09:57;;;;;;;19.25;3.55;;;6.40;99.90;;;;;;5073116;28;20626;-45
2023/12/22 05:12:22;;;;;;;16.20;3.15;;;6.40;99.90;;;;;;5074640;28;20432;-45
2023/12/22 05:14:48;;;;;;;21.92;2.85;;;6.10;99.90;;;;;;5074674;28;20048;-46
2023/12/22 05:17:14;;;;;;;19.30;2.67;;;6.50;99.90;;;;;;5074684;28;20063;-45
2023/12/22 05:19:39;;;;;;;13.57;3.50;;;6.50;99.90;;;;;;5073425;28;20071;-45
2023/12/22 05:22:05;;;;;;;16.63;3.22;;;6.50;99.90;;;;;;5074388;28;20445;-44
2023/12/22 05:24:31;;;;;;;20.33;3.08;;;6.00;99.90;;;;;;5074157;28;20049;-48
2023/12/22 05:26:56;;;;;;;19.60;2.67;;;6.00;99.90;;;;;;5074255;28;20542;-49
2023/12/22 05:29:22;;;;;;;23.58;3.83;;;5.80;99.90;;;;;;5074054;28;20174;-46
2023/12/22 05:31:48;;;;;;;25.33;6.38;;;6.30;99.90;;;;;;5073091;28;20078;-45
2023/12/22 05:34:13;;;;;;;20.15;3.17;;;6.50;99.90;;;;;;5074155;28;20333;-45
2023/12/22 05:36:39;;;;;;;18.63;3.45;;;6.40;99.90;;;;;;5072984;28;20033;-45
2023/12/22 05:39:07;;;;;;;21.20;3.30;;;6.30;99.90;;;;;;5072537;28;20044;-45
2023/12/22 05:41:36;;;;;;;15.93;2.70;;;6.40;99.90;;;;;;5073999;28;20042;-45
2023/12/22 05:44:01;;;;;;;17.60;2.80;;;5.90;99.90;;;;;;5073768;28;20056;-45
2023/12/22 05:46:27;;;;;;;14.05;3.08;;;6.40;99.90;;;;;;5073878;28;20116;-44
2023/12/22 05:48:53;;;;;;;21.50;3.40;;;6.20;99.90;;;;;;5072474;28;20056;-45
2023/12/22 05:51:18;;;;;;;17.70;3.60;;;6.10;99.90;;;;;;5074040;28;20028;-45
2023/12/22 05:53:44;;;;;;;23.13;2.63;;;6.30;99.90;;;;;;5074083;28;20526;-45
2023/12/22 05:56:19;;;;;;;19.38;2.65;;;6.20;99.90;;;;;;5073683;28;20509;-45
2023/12/22 05:58:46;;;;;;;17.60;2.97;;;6.10;99.90;;;;;;5073926;28;20045;-44
2023/12/22 06:01:18;;;;;;;14.77;2.65;;;6.30;99.90;;;;;;5073886;28;20119;-46
2023/12/22 06:03:48;;;;;;;17.77;2.78;;;6.50;99.90;;;;;;5073616;28;20040;-46
2023/12/22 06:06:14;;;;;;;19.48;2.70;;;6.50;99.90;;;;;;5073237;28;20044;-47
2023/12/22 06:08:40;;;;;;;14.20;3.17;;;6.10;99.90;;;;;;5073290;28;20047;-48
2023/12/22 06:11:05;;;;;;;22.63;3.40;;;6.10;99.90;;;;;;5072294;28;20574;-48
2023/12/22 06:13:32;;;;;;;16.52;3.05;;;6.30;99.90;;;;;;5071809;28;20116;-46
2023/12/22 06:15:57;;;;;;;16.60;3.22;;;6.20;99.90;;;;;;5073524;28;20110;-48
2023/12/22 06:18:23;;;;;;;19.13;3.10;;;6.00;99.90;;;;;;5073342;28;20036;-47
2023/12/22 06:20:50;;;;;;;22.08;3.03;;;5.90;99.90;;;;;;5071872;28;20514;-48
2023/12/22 06:23:15;;;;;;;21.42;3.58;;;6.20;99.90;;;;;;5073124;28;20518;-45
2023/12/22 06:25:41;;;;;;;19.15;3.17;;;6.00;99.90;;;;;;5073021;28;20048;-47
2023/12/22 06:28:07;;;;;;;20.73;3.60;;;6.20;99.90;;;;;;5073344;28;20135;-46
2023/12/22 06:30:32;;;;;;;24.20;3.35;;;6.30;99.90;;;;;;5073104;28;20037;-49
2023/12/22 06:32:58;;;;;;;22.38;2.80;;;6.30;99.90;;;;;;5073118;28;20043;-48
2023/12/22 06:35:25;;;;;;;19.35;3.35;;;6.40;99.90;;;;;;5073205;28;20051;-46
2023/12/22 06:37:55;;;;;;;17.90;2.63;;;6.30;99.90;;;;;;5073215;28;20538;-48
2023/12/22 06:40:21;;;;;;;18.27;3.13;;;6.40;99.90;;;;;;5073050;28;20044;-49
2023/12/22 06:42:47;;;;;;;13.23;2.55;;;6.20;99.90;;;;;;5072725;28;20036;-45
2023/12/22 06:45:12;;;;;;;20.70;2.80;;;6.10;99.90;;;;;;5072428;28;20057;-47
2023/12/22 06:47:38;;;;;;;13.95;2.58;;;6.00;99.90;;;;;;5072714;28;20091;-46
2023/12/22 06:50:04;;;;;;;19.27;2.42;;;6.10;99.90;;;;;;5072875;28;20472;-49
2023/12/22 06:52:30;;;;;;;17.08;1.95;;;6.10;99.90;;;;;;5071257;28;20075;-48
2023/12/22 06:54:56;;;;;;;21.40;3.90;;;6.30;99.90;;;;;;5071734;28;20076;-44
2023/12/22 06:57:22;;;;;;;14.48;2.53;;;6.40;99.90;;;;;;5071411;28;20118;-46
2023/12/22 06:59:51;;;;;;;18.48;3.00;;;6.30;99.90;;;;;;5071322;28;20102;-44
2023/12/22 07:02:16;;;;;;;15.93;2.85;;;6.30;99.90;;;;;;5071545;28;20040;-47
2023/12/22 07:04:42;;;;;;;19.40;2.60;;;6.20;99.90;;;;;;5071647;28;20063;-45
2023/12/22 07:07:08;;;;;;;19.15;2.42;;;6.10;99.90;;;;;;5071224;28;20052;-45
2023/12/22 07:09:34;;;;;;;12.10;1.77;;;6.00;99.90;;;;;;5071091;28;20040;-46
2023/12/22 07:12:01;;;;;;;14.95;1.60;;;6.20;99.90;;;;;;5071257;28;20040;-46
2023/12/22 07:14:26;;;;;;;14.18;1.92;;;6.20;99.90;;;;;;5071328;28;20056;-46
2023/12/22 07:16:52;;;;;;;13.52;2.35;;;6.00;99.90;;;;;;5053727;28;20041;-47
2023/12/22 07:19:18;;;;;;;14.45;2.28;;;6.10;99.90;;;;;;5071557;28;20040;-45
2023/12/22 07:21:43;;;;;;;15.10;3.25;;;6.30;99.90;;;;;;5070202;28;20048;-45
2023/12/22 07:24:09;;;;;;;18.35;2.63;;;6.30;99.90;;;;;;5071123;28;20444;-44
2023/12/22 07:26:35;;;;;;;17.15;2.10;;;6.30;99.90;;;;;;5069538;28;20044;-47
2023/12/22 07:29:00;;;;;;;14.45;2.63;;;6.10;99.90;;;;;;5071360;28;20044;-44
2023/12/22 07:31:26;;;;;;;15.68;2.80;;;6.10;99.90;;;;;;5071359;28;20036;-44
2023/12/22 07:33:52;;;;;;;16.50;2.35;;;6.20;99.90;;;;;;5071295;28;20051;-47
2023/12/22 07:36:18;;;;;;;19.80;2.60;;;6.30;99.90;;;;;;5071332;28;20032;-45
2023/12/22 07:38:44;;;;;;;11.30;1.70;;;6.50;99.90;;;;;;5071613;28;20653;-45
2023/12/22 07:41:10;;;;;;;15.95;2.60;;;6.20;99.90;;;;;;5071299;28;20067;-45
2023/12/22 07:43:36;;;;;;;14.95;2.05;;;6.40;99.90;;;;;;5071122;28;20052;-45
2023/12/22 07:46:02;;;;;;;15.80;2.25;;;6.30;99.90;;;;;;5071024;28;20465;-46
2023/12/22 07:48:28;;;;;;;18.70;3.75;;;6.40;99.90;;;;;;5070823;28;20044;-46
2023/12/22 07:50:53;;;;;;;18.55;2.83;;;6.40;99.90;;;;;;5071372;28;20115;-44
2023/12/22 07:53:19;;;;;;;16.90;2.70;;;6.20;99.90;;;;;;5071048;28;20044;-49
2023/12/22 07:55:46;;;;;;;10.52;2.03;;;6.50;99.90;;;;;;5069901;28;20048;-47
2023/12/22 07:58:12;;;;;;;12.80;2.42;;;6.30;99.90;;;;;;5070944;28;20040;-48
2023/12/22 08:00:38;;;;;;;15.73;2.15;;;6.30;99.90;;;;;;5071015;28;20064;-45
2023/12/22 08:03:04;;;;;;;20.20;2.10;;;6.50;99.90;;;;;;5071168;28;20678;-47
2023/12/22 08:05:30;;;;;;;9.82;1.63;;;6.40;99.90;;;;;;5071018;28;20087;-48
2023/12/22 08:07:56;;;;;;;15.82;3.10;;;6.40;99.90;;;;;;5071163;28;20036;-49
2023/12/22 08:10:21;;;;;;;14.05;2.00;;;6.20;99.90;;;;;;5064400;28;20029;-47
2023/12/22 08:12:47;;;;;;;13.52;2.15;;;6.30;99.90;;;;;;5068343;28;20070;-47
2023/12/22 08:15:13;;;;;;;15.32;2.38;;;6.20;99.90;;;;;;5070724;28;20041;-46
2023/12/22 08:17:49;;;;;;;17.88;2.55;;;6.40;99.90;;;;;;5066628;28;20049;-49
2023/12/22 08:20:19;;;;;;;13.93;2.83;;;6.20;99.90;;;;;;5057534;28;20055;-55
2023/12/22 08:22:48;;;;;;;20.13;2.85;;;6.60;99.90;;;;;;5058845;28;20130;-57
2023/12/22 08:25:15;;;;;;;20.08;2.97;;;6.50;99.90;;;;;;5056914;28;20497;-57
2023/12/22 08:27:41;;;;;;;16.95;2.20;;;6.60;99.90;;;;;;5059151;28;20575;-55
2023/12/22 08:30:08;;;;;;;15.35;2.15;;;6.70;99.90;;;;;;5057578;28;20377;-56
2023/12/22 08:32:34;;;;;;;20.55;4.22;;;6.70;99.90;;;;;;5054391;28;20097;-55
2023/12/22 08:35:00;;;;;;;11.93;2.00;;;6.70;99.90;;;;;;5057639;28;20045;-54
2023/12/22 08:37:26;;;;;;;17.52;3.85;;;6.70;99.90;;;;;;5058113;28;20047;-56
2023/12/22 08:39:52;;;;;;;19.58;3.50;;;6.20;99.90;;;;;;5062477;28;20086;-57
2023/12/22 08:42:18;;;;;;;15.32;3.05;;;6.00;99.90;;;;;;5059541;28;20044;-57
2023/12/22 08:44:44;;;;;;;17.15;3.88;;;6.60;99.90;;;;;;5063600;28;20044;-46
2023/12/22 08:47:09;;;;;;;22.67;3.10;;;5.80;99.90;;;;;;5065459;28;20048;-45
2023/12/22 08:49:35;;;;;;;18.38;2.85;;;6.60;99.90;;;;;;5068504;28;20040;-49
2023/12/22 08:52:03;;;;;;;17.40;3.08;;;5.70;99.90;;;;;;5066962;28;20033;-46
2023/12/22 08:54:29;;;;;;;26.60;3.78;;;5.70;99.90;;;;;;5066176;28;20043;-53
2023/12/22 08:56:55;;;;;;;18.38;2.60;;;6.50;99.90;;;;;;5066017;28;20388;-45
2023/12/22 08:59:20;;;;;;;17.65;2.80;;;6.10;99.90;;;;;;5064077;28;20686;-47
2023/12/22 09:01:46;;;;;;;19.38;2.80;;;5.70;99.90;;;;;;5064525;28;20032;-47
2023/12/22 09:04:12;;;;;;;15.70;2.05;;;6.00;99.90;;;;;;5064865;28;20137;-47
2023/12/22 09:06:39;;;;;;;15.90;2.83;;;6.50;99.90;;;;;;5064657;28;20045;-46
2023/12/22 09:09:06;;;;;;;15.23;2.80;;;6.20;99.90;;;;;;5063748;28;20110;-46
2023/12/22 09:11:31;;;;;;;18.17;3.03;;;5.70;99.90;;;;;;5064916;28;20067;-49
2023/12/22 09:13:57;;;;;;;18.70;2.15;;;6.40;99.90;;;;;;5063010;28;20400;-46
2023/12/22 09:16:26;;;;;;;13.98;2.08;;;6.40;99.90;;;;;;5065195;28;20044;-49
2023/12/22 09:18:52;;;;;;;15.98;2.55;;;5.60;99.90;;;;;;5065620;28;20442;-46
2023/12/22 09:21:18;;;;;;;12.07;1.98;;;6.30;99.90;;;;;;5064396;28;20119;-49
2023/12/22 09:23:47;;;;;;;15.60;1.98;;;6.60;99.90;;;;;;5062423;28;20033;-47
2023/12/22 09:26:14;;;;;;;17.60;3.20;;;5.80;99.90;;;;;;5063265;28;20043;-46
2023/12/22 09:28:40;;;;;;;19.33;3.05;;;5.90;99.90;;;;;;5066825;28;20054;-46
2023/12/22 09:31:07;;;;;;;13.18;2.53;;;6.50;99.90;;;;;;5066222;28;20040;-46
2023/12/22 09:33:33;;;;;;;15.38;2.00;;;5.90;99.90;;;;;;5063779;28;20048;-46
2023/12/22 09:35:59;;;;;;;12.57;2.30;;;6.60;99.90;;;;;;5065924;28;20055;-47
2023/12/22 09:38:24;;;;;;;10.88;1.73;;;6.10;99.90;;;;;;5066162;28;20044;-46
2023/12/22 09:40:50;;;;;;;11.35;2.28;;;6.50;99.90;;;;;;5065019;28;20404;-49
2023/12/22 09:43:18;;;;;;;11.50;2.25;;;6.30;99.90;;;;;;5064128;28;20049;-47
2023/12/22 09:45:46;;;;;;;11.07;2.00;;;6.80;99.90;;;;;;5065740;28;20042;-47
2023/12/22 09:48:17;;;;;;;12.82;2.28;;;6.80;99.90;;;;;;5064665;28;20075;-50
2023/12/22 09:50:46;;;;;;;10.32;1.73;;;6.10;99.90;;;;;;5066551;28;20115;-48
2023/12/22 09:53:15;;;;;;;12.38;1.60;;;6.70;99.90;;;;;;5065084;28;20127;-48
2023/12/22 09:55:46;;;;;;;12.25;1.80;;;6.20;99.90;;;;;;5065515;28;20124;-47
2023/12/22 09:58:16;;;;;;;10.77;2.25;;;6.90;99.90;;;;;;5064567;28;20048;-49
2023/12/22 10:00:43;;;;;;;12.85;1.70;;;6.90;99.90;;;;;;5045280;28;20048;-48
2023/12/22 10:03:10;;;;;;;13.18;2.10;;;7.00;99.90;;;;;;5065149;28;20048;-51
2023/12/22 10:05:36;;;;;;;10.55;2.35;;;6.50;99.90;;;;;;5064363;28;20040;-47
2023/12/22 10:08:04;;;;;;;13.43;2.20;;;7.00;99.90;;;;;;5066301;28;20038;-47
2023/12/22 10:10:30;;;;;;;9.65;1.70;;;7.00;99.90;;;;;;5064053;28;20041;-47
2023/12/22 10:12:58;;;;;;;10.05;1.77;;;6.90;99.90;;;;;;5064493;28;20400;-48
2023/12/22 10:15:24;;;;;;;20.48;2.33;;;7.00;99.90;;;;;;5063673;28;20107;-48
2023/12/22 10:17:51;;;;;;;12.60;1.98;;;7.10;99.90;;;;;;5063925;28;20139;-47
2023/12/22 10:20:17;;;;;;;15.65;2.75;;;7.10;99.90;;;;;;5063537;28;20131;-48
2023/12/22 10:22:42;;;;;;;13.35;1.75;;;7.10;99.90;;;;;;5062811;28;20124;-47
2023/12/22 10:25:08;;;;;;;12.07;1.80;;;7.10;99.90;;;;;;5065536;28;20036;-47
2023/12/22 10:27:36;;;;;;;14.25;2.72;;;6.90;99.90;;;;;;5062490;28;20031;-46
2023/12/22 10:30:03;;;;;;;13.85;2.60;;;7.20;99.90;;;;;;5063182;28;20056;-47
2023/12/22 10:32:29;;;;;;;13.98;2.13;;;7.10;99.90;;;;;;5064466;28;20717;-48
2023/12/22 10:34:57;;;;;;;12.75;2.00;;;6.90;99.90;;;;;;5064719;28;20050;-46
2023/12/22 10:37:23;;;;;;;18.70;2.13;;;6.90;99.90;;;;;;5062987;28;20044;-49
2023/12/22 10:39:53;;;;;;;12.13;1.80;;;7.00;99.90;;;;;;5064626;28;20041;-46
2023/12/22 10:42:20;;;;;;;12.43;2.03;;;6.50;99.90;;;;;;5064099;28;20043;-47
2023/12/22 10:44:46;;;;;;;15.93;2.25;;;6.50;99.90;;;;;;5063876;28;20139;-47
2023/12/22 10:47:11;;;;;;;14.55;3.08;;;7.30;99.90;;;;;;5063772;28;20132;-45
2023/12/22 10:49:37;;;;;;;12.13;2.38;;;6.50;99.90;;;;;;5063914;28;20123;-47
2023/12/22 10:52:03;;;;;;;15.00;2.00;;;7.40;99.90;;;;;;5063433;28;20033;-46
2023/12/22 10:54:30;;;;;;;15.52;2.53;;;7.10;99.90;;;;;;5062726;28;20471;-47
2023/12/22 10:57:00;;;;;;;15.25;2.10;;;6.80;99.90;;;;;;5063694;28;20040;-47
2023/12/22 10:59:29;;;;;;;12.18;1.83;;;7.40;99.90;;;;;;5062686;28;20120;-47
2023/12/22 11:01:57;;;;;;;19.50;2.38;;;7.00;99.90;;;;;;5061977;28;20116;-49
2023/12/22 11:04:29;;;;;;;14.75;2.58;;;7.40;99.90;;;;;;5061452;28;20037;-46
2023/12/22 11:06:59;;;;;;;15.70;2.70;;;6.90;99.90;;;;;;5063361;28;20111;-50
2023/12/22 11:09:31;;;;;;;14.10;2.35;;;7.00;99.90;;;;;;5061803;28;20041;-48
2023/12/22 11:11:57;;;;;;;15.00;1.95;;;7.00;99.90;;;;;;5062496;28;20480;-50
2023/12/22 11:14:25;;;;;;;15.30;2.85;;;7.60;99.90;;;;;;5062076;28;20128;-47
2023/12/22 11:16:53;;;;;;;18.52;1.88;;;7.60;99.90;;;;;;5060490;28;20060;-48
2023/12/22 11:19:20;;;;;;;13.20;1.83;;;6.90;99.90;;;;;;5062115;28;20438;-47
2023/12/22 11:21:49;;;;;;;16.80;2.28;;;6.80;99.90;;;;;;5062612;28;20037;-48
2023/12/22 11:24:16;;;;;;;11.30;1.88;;;7.10;99.90;;;;;;5062394;28;20682;-47
2023/12/22 11:26:42;;;;;;;15.30;2.03;;;6.80;99.90;;;;;;5063615;28;20052;-46
2023/12/22 11:29:10;;;;;;;10.82;1.80;;;6.90;99.90;;;;;;5062216;28;20044;-47
2023/12/22 11:31:37;;;;;;;16.65;1.98;;;7.10;99.90;;;;;;5062894;28;20089;-47
2023/12/22 11:34:06;;;;;;;15.82;2.78;;;6.90;99.90;;;;;;5063466;28;20051;-49
2023/12/22 11:36:32;;;;;;;14.15;1.85;;;7.60;99.90;;;;;;5060986;28;20048;-47
2023/12/22 11:38:58;;;;;;;16.48;2.30;;;7.00;99.90;;;;;;5061518;28;20044;-48
2023/12/22 11:41:27;;;;;;;9.40;1.48;;;7.50;99.90;;;;;;5063646;28;20048;-48
2023/12/22 11:43:54;;;;;;;10.63;1.63;;;7.60;99.90;;;;;;5063991;28;20496;-47
2023/12/22 11:46:19;;;;;;;12.73;1.88;;;7.60;99.90;;;;;;5062583;28;20052;-46
2023/12/22 11:48:48;;;;;;;12.13;1.92;;;7.50;99.90;;;;;;5061013;28;20067;-45
2023/12/22 11:51:14;;;;;;;12.98;1.65;;;7.10;99.90;;;;;;5062624;28;20051;-46
2023/12/22 11:53:40;;;;;;;12.75;1.70;;;7.60;99.90;;;;;;5061746;28;20123;-48
2023/12/22 11:56:10;;;;;;;18.33;2.50;;;7.60;99.90;;;;;;5062860;28;20116;-47
2023/12/22 11:58:54;;;;;;;11.18;1.90;;;6.90;99.90;;;;;;5061753;28;20044;-47
2023/12/22 12:01:22;;;;;;;13.02;2.65;;;7.60;99.90;;;;;;5060553;28;20049;-48
2023/12/22 12:03:54;;;;;;;16.33;2.45;;;6.90;99.90;;;;;;5062952;28;20151;-46
2023/12/22 12:06:33;;;;;;;12.98;3.15;;;7.50;99.90;;;;;;5061447;28;20045;-45
2023/12/22 12:09:05;;;;;;;20.67;4.55;;;7.10;99.90;;;;;;5061363;28;20170;-46
2023/12/22 12:11:52;;;;;;;11.02;2.50;;;7.40;99.90;;;;;;5061936;28;20102;-46
2023/12/22 12:14:32;;;;;;;12.82;1.80;;;7.30;99.90;;;;;;5064788;28;20084;-46
2023/12/22 12:17:06;;;;;;;10.20;1.50;;;7.50;99.90;;;;;;5065310;28;20040;-48
2023/12/22 12:19:34;;;;;;;17.67;2.45;;;7.20;99.90;;;;;;5066081;28;20044;-47
2023/12/22 12:22:00;;;;;;;10.73;3.50;;;6.90;99.90;;;;;;5064629;28;20064;-47
2023/12/22 12:24:27;;;;;;;15.30;1.90;;;6.80;99.90;;;;;;5067095;28;20033;-47
2023/12/22 12:26:52;;;;;;;11.23;1.63;;;6.80;99.90;;;;;;5065239;28;20652;-47
2023/12/22 12:29:20;;;;;;;10.82;1.58;;;7.20;99.90;;;;;;5067462;28;20102;-47
2023/12/22 12:31:46;;;;;;;10.70;1.67;;;7.10;99.90;;;;;;5063651;28;20115;-46
2023/12/22 12:34:14;;;;;;;19.52;2.72;;;7.10;99.90;;;;;;5064282;28;20041;-49
2023/12/22 12:36:40;;;;;;;13.23;1.52;;;7.50;99.90;;;;;;5066249;28;20047;-47
2023/12/22 12:39:15;;;;;;;13.77;1.70;;;7.20;99.90;;;;;;5065589;28;20109;-50
2023/12/22 12:41:44;;;;;;;12.10;1.85;;;7.60;99.90;;;;;;5066917;28;20059;-47
2023/12/22 12:44:10;;;;;;;14.45;1.98;;;7.60;99.90;;;;;;5063910;28;20113;-49
2023/12/22 12:46:41;;;;;;;11.48;1.70;;;7.50;99.90;;;;;;5064362;28;20457;-47